sensor_id;sensor_type;location;lat;lon;timestamp;temperature;humidity
39067;DHT22;24821;51.988;6.020;2023-01-10T00:00:30;6.80;99.90
39067;DHT22;24821;51.988;6.020;2023-01-10T00:03:00;6.70;99.90
39067;DHT22;24821;51.988;6.020;2023-01-10T00:05:26;6.70;99.90
39067;DHT22;24821;51.988;6.020;2023-01-10T00:07:51;6.70;99.90
39067;DHT22;24821;51.988;6.020;2023-01-10T00:10:17;6.70;99.90
39067;DHT22;24821;51.988;6.020;2023-01-10T00:12:42;6.60;99.90
39067;DHT22;24821;51.988;6.020;2023-01-10T00:15:27;6.50;99.90
39067;DHT22;24821;51.988;6.020;2023-01-10T00:17:52;6.50;99.90
39067;DHT22;24821;51.988;6.020;2023-01-10T00:20:18;6.50;99.90
39067;DHT22;24821;51.988;6.020;2023-01-10T00:22:43;6.50;99.90
39067;DHT22;24821;51.988;6.020;2023-01-10T00:25:10;6.50;99.90
39067;DHT22;24821;51.988;6.020;2023-01-10T00:27:35;6.50;99.90
39067;DHT22;24821;51.988;6.020;2023-01-10T00:30:01;6.50;99.90
39067;DHT22;24821;51.988;6.020;2023-01-10T00:32:36;6.60;99.90
39067;DHT22;24821;51.988;6.020;2023-01-10T00:35:01;6.70;99.90
39067;DHT22;24821;51.988;6.020;2023-01-10T00:37:31;6.80;99.90
39067;DHT22;24821;51.988;6.020;2023-01-10T00:39:56;6.80;99.90
39067;DHT22;24821;51.988;6.020;2023-01-10T00:42:23;6.90;99.90
39067;DHT22;24821;51.988;6.020;2023-01-10T00:45:07;6.90;99.90
39067;DHT22;24821;51.988;6.020;2023-01-10T00:47:33;6.90;99.90
39067;DHT22;24821;51.988;6.020;2023-01-10T00:49:58;7.00;99.90
39067;DHT22;24821;51.988;6.020;2023-01-10T00:52:24;7.00;99.90
39067;DHT22;24821;51.988;6.020;2023-01-10T00:54:49;6.90;99.90
39067;DHT22;24821;51.988;6.020;2023-01-10T00:57:15;6.90;99.90
39067;DHT22;24821;51.988;6.020;2023-01-10T00:59:40;6.90;99.90
39067;DHT22;24821;51.988;6.020;2023-01-10T01:02:06;6.80;99.90
39067;DHT22;24821;51.988;6.020;2023-01-10T01:04:31;6.80;99.90
39067;DHT22;24821;51.988;6.020;2023-01-10T01:07:00;6.80;99.90
39067;DHT22;24821;51.988;6.020;2023-01-10T01:09:26;6.80;99.90
39067;DHT22;24821;51.988;6.020;2023-01-10T01:11:52;6.70;99.90
39067;DHT22;24821;51.988;6.020;2023-01-10T01:14:17;6.80;99.90
39067;DHT22;24821;51.988;6.020;2023-01-10T01:16:43;6.80;99.90
39067;DHT22;24821;51.988;6.020;2023-01-10T01:19:09;6.80;99.90
39067;DHT22;24821;51.988;6.020;2023-01-10T01:21:35;6.70;99.90
39067;DHT22;24821;51.988;6.020;2023-01-10T01:24:01;6.70;99.90
39067;DHT22;24821;51.988;6.020;2023-01-10T01:26:26;6.70;99.90
39067;DHT22;24821;51.988;6.020;2023-01-10T01:28:52;6.70;99.90
39067;DHT22;24821;51.988;6.020;2023-01-10T01:31:17;6.70;99.90
39067;DHT22;24821;51.988;6.020;2023-01-10T01:33:43;6.60;99.90
39067;DHT22;24821;51.988;6.020;2023-01-10T01:36:10;6.50;99.90
39067;DHT22;24821;51.988;6.020;2023-01-10T01:38:37;6.50;99.90
39067;DHT22;24821;51.988;6.020;2023-01-10T01:41:04;6.40;99.90
39067;DHT22;24821;51.988;6.020;2023-01-10T01:44:04;6.40;99.90
39067;DHT22;24821;51.988;6.020;2023-01-10T01:46:33;6.40;99.90
39067;DHT22;24821;51.988;6.020;2023-01-10T01:49:00;6.40;99.90
39067;DHT22;24821;51.988;6.020;2023-01-10T01:51:28;6.40;99.90
39067;DHT22;24821;51.988;6.020;2023-01-10T01:54:01;6.40;99.90
39067;DHT22;24821;51.988;6.020;2023-01-10T01:56:40;6.50;99.90
39067;DHT22;24821;51.988;6.020;2023-01-10T01:59:13;6.40;99.90
39067;DHT22;24821;51.988;6.020;2023-01-10T02:01:41;6.50;99.90
39067;DHT22;24821;51.988;6.020;2023-01-10T02:04:21;6.50;99.90
39067;DHT22;24821;51.988;6.020;2023-01-10T02:06:50;6.50;99.90
39067;DHT22;24821;51.988;6.020;2023-01-10T02:09:22;6.50;99.90
39067;DHT22;24821;51.988;6.020;2023-01-10T02:11:49;6.50;99.90
39067;DHT22;24821;51.988;6.020;2023-01-10T02:14:15;6.40;99.90
39067;DHT22;24821;51.988;6.020;2023-01-10T02:16:40;6.40;99.90
39067;DHT22;24821;51.988;6.020;2023-01-10T02:19:16;6.40;99.90
39067;DHT22;24821;51.988;6.020;2023-01-10T02:27:24;6.30;99.90
39067;DHT22;24821;51.988;6.020;2023-01-10T02:32:47;6.30;99.90
39067;DHT22;24821;51.988;6.020;2023-01-10T02:43:23;6.30;99.90
39067;DHT22;24821;51.988;6.020;2023-01-10T02:45:59;6.40;99.90
39067;DHT22;24821;51.988;6.020;2023-01-10T02:48:28;6.40;99.90
39067;DHT22;24821;51.988;6.020;2023-01-10T02:50:57;6.50;99.90
39067;DHT22;24821;51.988;6.020;2023-01-10T02:53:34;6.50;99.90
39067;DHT22;24821;51.988;6.020;2023-01-10T02:56:04;6.60;99.90
39067;DHT22;24821;51.988;6.020;2023-01-10T02:58:59;6.60;99.90
39067;DHT22;24821;51.988;6.020;2023-01-10T03:04:51;6.60;99.90
39067;DHT22;24821;51.988;6.020;2023-01-10T03:10:15;6.60;99.90
39067;DHT22;24821;51.988;6.020;2023-01-10T03:12:52;6.60;99.90
39067;DHT22;24821;51.988;6.020;2023-01-10T03:15:20;6.70;99.90
39067;DHT22;24821;51.988;6.020;2023-01-10T03:17:50;6.60;99.90
39067;DHT22;24821;51.988;6.020;2023-01-10T03:20:20;6.60;99.90
39067;DHT22;24821;51.988;6.020;2023-01-10T03:22:46;6.70;99.90
39067;DHT22;24821;51.988;6.020;2023-01-10T03:25:13;6.70;99.90
39067;DHT22;24821;51.988;6.020;2023-01-10T03:30:50;6.70;99.90
39067;DHT22;24821;51.988;6.020;2023-01-10T03:33:19;6.70;99.90
39067;DHT22;24821;51.988;6.020;2023-01-10T03:41:28;6.70;99.90
39067;DHT22;24821;51.988;6.020;2023-01-10T03:47:11;6.70;99.90
39067;DHT22;24821;51.988;6.020;2023-01-10T03:49:43;6.70;99.90
39067;DHT22;24821;51.988;6.020;2023-01-10T03:52:14;6.70;99.90
39067;DHT22;24821;51.988;6.020;2023-01-10T03:54:44;6.70;99.90
39067;DHT22;24821;51.988;6.020;2023-01-10T03:57:23;6.70;99.90
39067;DHT22;24821;51.988;6.020;2023-01-10T03:59:54;6.70;99.90
39067;DHT22;24821;51.988;6.020;2023-01-10T04:02:31;6.60;99.90
39067;DHT22;24821;51.988;6.020;2023-01-10T04:04:57;6.60;99.90
39067;DHT22;24821;51.988;6.020;2023-01-10T04:07:24;6.60;99.90
39067;DHT22;24821;51.988;6.020;2023-01-10T04:09:49;6.50;99.90
39067;DHT22;24821;51.988;6.020;2023-01-10T04:12:15;6.50;99.90
39067;DHT22;24821;51.988;6.020;2023-01-10T04:14:41;6.50;99.90
39067;DHT22;24821;51.988;6.020;2023-01-10T04:17:06;6.50;99.90
39067;DHT22;24821;51.988;6.020;2023-01-10T04:19:32;6.50;99.90
39067;DHT22;24821;51.988;6.020;2023-01-10T04:21:58;6.50;99.90
39067;DHT22;24821;51.988;6.020;2023-01-10T04:24:23;6.50;99.90
39067;DHT22;24821;51.988;6.020;2023-01-10T04:26:49;6.50;99.90
39067;DHT22;24821;51.988;6.020;2023-01-10T04:29:15;6.50;99.90
39067;DHT22;24821;51.988;6.020;2023-01-10T04:31:40;6.60;99.90
39067;DHT22;24821;51.988;6.020;2023-01-10T04:34:07;6.60;99.90
39067;DHT22;24821;51.988;6.020;2023-01-10T04:36:34;6.50;99.90
39067;DHT22;24821;51.988;6.020;2023-01-10T04:39:00;6.60;99.90
39067;DHT22;24821;51.988;6.020;2023-01-10T04:41:26;6.50;99.90
39067;DHT22;24821;51.988;6.020;2023-01-10T04:43:51;6.60;99.90
39067;DHT22;24821;51.988;6.020;2023-01-10T04:46:17;6.60;99.90
39067;DHT22;24821;51.988;6.020;2023-01-10T04:48:42;6.60;99.90
39067;DHT22;24821;51.988;6.020;2023-01-10T04:51:08;6.60;99.90
39067;DHT22;24821;51.988;6.020;2023-01-10T04:53:34;6.50;99.90
39067;DHT22;24821;51.988;6.020;2023-01-10T04:56:06;6.60;99.90
39067;DHT22;24821;51.988;6.020;2023-01-10T04:58:34;6.60;99.90
39067;DHT22;24821;51.988;6.020;2023-01-10T05:01:07;6.50;99.90
39067;DHT22;24821;51.988;6.020;2023-01-10T05:03:33;6.50;99.90
39067;DHT22;24821;51.988;6.020;2023-01-10T05:05:58;6.60;99.90
39067;DHT22;24821;51.988;6.020;2023-01-10T05:08:24;6.60;99.90
39067;DHT22;24821;51.988;6.020;2023-01-10T05:10:50;6.70;99.90
39067;DHT22;24821;51.988;6.020;2023-01-10T05:13:15;6.70;99.90
39067;DHT22;24821;51.988;6.020;2023-01-10T05:15:41;6.70;99.90
39067;DHT22;24821;51.988;6.020;2023-01-10T05:18:06;6.80;99.90
39067;DHT22;24821;51.988;6.020;2023-01-10T05:20:32;6.80;99.90
39067;DHT22;24821;51.988;6.020;2023-01-10T05:22:57;6.80;99.90
39067;DHT22;24821;51.988;6.020;2023-01-10T05:25:23;6.80;99.90
39067;DHT22;24821;51.988;6.020;2023-01-10T05:27:48;6.70;99.90
39067;DHT22;24821;51.988;6.020;2023-01-10T05:30:14;6.80;99.90
39067;DHT22;24821;51.988;6.020;2023-01-10T05:32:39;6.80;99.90
39067;DHT22;24821;51.988;6.020;2023-01-10T05:35:05;6.80;99.90
39067;DHT22;24821;51.988;6.020;2023-01-10T05:37:31;6.80;99.90
39067;DHT22;24821;51.988;6.020;2023-01-10T05:39:56;6.90;99.90
39067;DHT22;24821;51.988;6.020;2023-01-10T05:42:22;6.90;99.90
39067;DHT22;24821;51.988;6.020;2023-01-10T05:44:47;6.90;99.90
39067;DHT22;24821;51.988;6.020;2023-01-10T05:47:13;6.90;99.90
39067;DHT22;24821;51.988;6.020;2023-01-10T05:49:38;6.90;99.90
39067;DHT22;24821;51.988;6.020;2023-01-10T05:52:04;7.00;99.90
39067;DHT22;24821;51.988;6.020;2023-01-10T05:54:30;7.00;99.90
39067;DHT22;24821;51.988;6.020;2023-01-10T05:56:56;7.00;99.90
39067;DHT22;24821;51.988;6.020;2023-01-10T05:59:21;7.00;99.90
39067;DHT22;24821;51.988;6.020;2023-01-10T06:01:47;7.10;99.90
39067;DHT22;24821;51.988;6.020;2023-01-10T06:04:13;7.00;99.90
39067;DHT22;24821;51.988;6.020;2023-01-10T06:06:38;7.00;99.90
39067;DHT22;24821;51.988;6.020;2023-01-10T06:09:04;6.90;99.90
39067;DHT22;24821;51.988;6.020;2023-01-10T06:11:30;6.90;99.90
39067;DHT22;24821;51.988;6.020;2023-01-10T06:13:56;6.90;99.90
39067;DHT22;24821;51.988;6.020;2023-01-10T06:16:22;6.90;99.90
39067;DHT22;24821;51.988;6.020;2023-01-10T06:18:48;6.90;99.90
39067;DHT22;24821;51.988;6.020;2023-01-10T06:21:14;6.90;99.90
39067;DHT22;24821;51.988;6.020;2023-01-10T06:23:39;6.90;99.90
39067;DHT22;24821;51.988;6.020;2023-01-10T06:26:05;7.00;99.90
39067;DHT22;24821;51.988;6.020;2023-01-10T06:28:31;7.00;99.90
39067;DHT22;24821;51.988;6.020;2023-01-10T06:30:56;7.00;99.90
39067;DHT22;24821;51.988;6.020;2023-01-10T06:33:22;7.00;99.90
39067;DHT22;24821;51.988;6.020;2023-01-10T06:35:48;7.00;99.90
39067;DHT22;24821;51.988;6.020;2023-01-10T06:38:14;7.00;99.90
39067;DHT22;24821;51.988;6.020;2023-01-10T06:40:39;7.00;99.90
39067;DHT22;24821;51.988;6.020;2023-01-10T06:43:05;7.00;99.90
39067;DHT22;24821;51.988;6.020;2023-01-10T06:45:31;7.00;99.90
39067;DHT22;24821;51.988;6.020;2023-01-10T06:47:56;7.00;99.90
39067;DHT22;24821;51.988;6.020;2023-01-10T06:50:22;6.90;99.90
39067;DHT22;24821;51.988;6.020;2023-01-10T06:53:00;6.90;99.90
39067;DHT22;24821;51.988;6.020;2023-01-10T06:55:26;6.90;99.90
39067;DHT22;24821;51.988;6.020;2023-01-10T06:58:00;6.90;99.90
39067;DHT22;24821;51.988;6.020;2023-01-10T07:00:27;7.00;99.90
39067;DHT22;24821;51.988;6.020;2023-01-10T07:02:54;7.00;99.90
39067;DHT22;24821;51.988;6.020;2023-01-10T07:05:20;7.00;99.90
39067;DHT22;24821;51.988;6.020;2023-01-10T07:07:46;7.00;99.90
39067;DHT22;24821;51.988;6.020;2023-01-10T07:10:12;7.00;99.90
39067;DHT22;24821;51.988;6.020;2023-01-10T07:12:38;7.00;99.90
39067;DHT22;24821;51.988;6.020;2023-01-10T07:15:04;7.10;99.90
39067;DHT22;24821;51.988;6.020;2023-01-10T07:17:30;7.10;99.90
39067;DHT22;24821;51.988;6.020;2023-01-10T07:19:55;7.10;99.90
39067;DHT22;24821;51.988;6.020;2023-01-10T07:22:21;7.10;99.90
39067;DHT22;24821;51.988;6.020;2023-01-10T07:24:46;7.10;99.90
39067;DHT22;24821;51.988;6.020;2023-01-10T07:27:12;7.10;99.90
39067;DHT22;24821;51.988;6.020;2023-01-10T07:29:37;7.10;99.90
39067;DHT22;24821;51.988;6.020;2023-01-10T07:32:05;7.10;99.90
39067;DHT22;24821;51.988;6.020;2023-01-10T07:34:30;7.10;99.90
39067;DHT22;24821;51.988;6.020;2023-01-10T07:36:56;7.10;99.90
39067;DHT22;24821;51.988;6.020;2023-01-10T07:39:21;7.20;99.90
39067;DHT22;24821;51.988;6.020;2023-01-10T07:41:47;7.20;99.90
39067;DHT22;24821;51.988;6.020;2023-01-10T07:44:13;7.20;99.90
39067;DHT22;24821;51.988;6.020;2023-01-10T07:46:39;7.20;99.90
39067;DHT22;24821;51.988;6.020;2023-01-10T07:49:05;7.20;99.90
39067;DHT22;24821;51.988;6.020;2023-01-10T07:51:31;7.20;99.90
39067;DHT22;24821;51.988;6.020;2023-01-10T07:53:57;7.20;99.90
39067;DHT22;24821;51.988;6.020;2023-01-10T07:56:23;7.30;99.90
39067;DHT22;24821;51.988;6.020;2023-01-10T07:58:49;7.30;99.90
39067;DHT22;24821;51.988;6.020;2023-01-10T08:01:14;7.30;99.90
39067;DHT22;24821;51.988;6.020;2023-01-10T08:03:40;7.30;99.90
39067;DHT22;24821;51.988;6.020;2023-01-10T08:06:07;7.30;99.90
39067;DHT22;24821;51.988;6.020;2023-01-10T08:08:35;7.30;99.90
39067;DHT22;24821;51.988;6.020;2023-01-10T08:11:01;7.30;99.90
39067;DHT22;24821;51.988;6.020;2023-01-10T08:13:30;7.30;99.90
39067;DHT22;24821;51.988;6.020;2023-01-10T08:15:56;7.20;99.90
39067;DHT22;24821;51.988;6.020;2023-01-10T08:18:23;7.30;99.90
39067;DHT22;24821;51.988;6.020;2023-01-10T08:20:50;7.30;99.90
39067;DHT22;24821;51.988;6.020;2023-01-10T08:23:16;7.30;99.90
39067;DHT22;24821;51.988;6.020;2023-01-10T08:25:42;7.30;99.90
39067;DHT22;24821;51.988;6.020;2023-01-10T08:28:17;7.30;99.90
39067;DHT22;24821;51.988;6.020;2023-01-10T08:30:43;7.40;99.90
39067;DHT22;24821;51.988;6.020;2023-01-10T08:33:09;7.40;99.90
39067;DHT22;24821;51.988;6.020;2023-01-10T08:35:38;7.30;99.90
39067;DHT22;24821;51.988;6.020;2023-01-10T08:38:04;7.30;99.90
39067;DHT22;24821;51.988;6.020;2023-01-10T08:40:29;7.30;99.90
39067;DHT22;24821;51.988;6.020;2023-01-10T08:43:00;7.30;99.90
39067;DHT22;24821;51.988;6.020;2023-01-10T08:45:26;7.30;99.90
39067;DHT22;24821;51.988;6.020;2023-01-10T08:47:59;7.30;99.90
39067;DHT22;24821;51.988;6.020;2023-01-10T08:50:26;7.30;99.90
39067;DHT22;24821;51.988;6.020;2023-01-10T08:52:51;7.20;99.90
39067;DHT22;24821;51.988;6.020;2023-01-10T08:55:18;7.20;99.90
39067;DHT22;24821;51.988;6.020;2023-01-10T08:57:43;7.20;99.90
39067;DHT22;24821;51.988;6.020;2023-01-10T09:00:09;7.20;99.90
39067;DHT22;24821;51.988;6.020;2023-01-10T09:02:38;7.20;99.90
39067;DHT22;24821;51.988;6.020;2023-01-10T09:05:03;7.20;99.90
39067;DHT22;24821;51.988;6.020;2023-01-10T09:07:29;7.20;99.90
39067;DHT22;24821;51.988;6.020;2023-01-10T09:09:55;7.30;99.90
39067;DHT22;24821;51.988;6.020;2023-01-10T09:12:20;7.30;99.90
39067;DHT22;24821;51.988;6.020;2023-01-10T09:15:06;7.30;99.90
39067;DHT22;24821;51.988;6.020;2023-01-10T09:17:32;7.30;99.90
39067;DHT22;24821;51.988;6.020;2023-01-10T09:19:57;7.30;99.90
39067;DHT22;24821;51.988;6.020;2023-01-10T09:22:23;7.20;99.90
39067;DHT22;24821;51.988;6.020;2023-01-10T09:24:48;7.30;99.90
39067;DHT22;24821;51.988;6.020;2023-01-10T09:27:14;7.20;99.90
39067;DHT22;24821;51.988;6.020;2023-01-10T09:29:39;7.30;99.90
39067;DHT22;24821;51.988;6.020;2023-01-10T09:32:26;7.30;99.90
39067;DHT22;24821;51.988;6.020;2023-01-10T09:34:53;7.40;99.90
39067;DHT22;24821;51.988;6.020;2023-01-10T09:37:52;7.40;99.90
39067;DHT22;24821;51.988;6.020;2023-01-10T09:40:50;7.30;99.90
39067;DHT22;24821;51.988;6.020;2023-01-10T09:45:58;7.30;99.90
39067;DHT22;24821;51.988;6.020;2023-01-10T09:48:54;7.40;99.90
39067;DHT22;24821;51.988;6.020;2023-01-10T09:52:03;7.40;99.90
39067;DHT22;24821;51.988;6.020;2023-01-10T09:54:40;7.40;99.90
39067;DHT22;24821;51.988;6.020;2023-01-10T09:57:17;7.40;99.90
39067;DHT22;24821;51.988;6.020;2023-01-10T09:59:44;7.40;99.90
39067;DHT22;24821;51.988;6.020;2023-01-10T10:02:22;7.40;99.90
39067;DHT22;24821;51.988;6.020;2023-01-10T10:05:07;7.40;99.90
39067;DHT22;24821;51.988;6.020;2023-01-10T10:07:34;7.50;99.90
39067;DHT22;24821;51.988;6.020;2023-01-10T10:10:00;7.40;99.90
39067;DHT22;24821;51.988;6.020;2023-01-10T10:12:42;7.50;99.90
39067;DHT22;24821;51.988;6.020;2023-01-10T10:17:54;7.40;99.90
39067;DHT22;24821;51.988;6.020;2023-01-10T10:20:35;7.40;99.90
39067;DHT22;24821;51.988;6.020;2023-01-10T10:23:36;7.40;99.90
39067;DHT22;24821;51.988;6.020;2023-01-10T10:26:16;7.40;99.90
39067;DHT22;24821;51.988;6.020;2023-01-10T10:29:06;7.40;99.90
39067;DHT22;24821;51.988;6.020;2023-01-10T10:34:39;7.40;99.90
39067;DHT22;24821;51.988;6.020;2023-01-10T10:37:33;7.30;99.90
39067;DHT22;24821;51.988;6.020;2023-01-10T10:40:04;7.40;99.90
39067;DHT22;24821;51.988;6.020;2023-01-10T10:42:34;7.40;99.90
39067;DHT22;24821;51.988;6.020;2023-01-10T10:47:52;7.40;99.90
39067;DHT22;24821;51.988;6.020;2023-01-10T10:50:24;7.40;99.90
39067;DHT22;24821;51.988;6.020;2023-01-10T10:52:53;7.40;99.90
39067;DHT22;24821;51.988;6.020;2023-01-10T10:55:26;7.40;99.90
39067;DHT22;24821;51.988;6.020;2023-01-10T10:57:53;7.40;99.90
39067;DHT22;24821;51.988;6.020;2023-01-10T11:00:19;7.40;99.90
39067;DHT22;24821;51.988;6.020;2023-01-10T11:02:50;7.40;99.90
39067;DHT22;24821;51.988;6.020;2023-01-10T11:05:20;7.40;99.90
39067;DHT22;24821;51.988;6.020;2023-01-10T11:07:48;7.50;99.90
39067;DHT22;24821;51.988;6.020;2023-01-10T11:10:20;7.50;99.90
39067;DHT22;24821;51.988;6.020;2023-01-10T11:15:50;7.60;99.90
39067;DHT22;24821;51.988;6.020;2023-01-10T11:18:19;7.50;99.90
39067;DHT22;24821;51.988;6.020;2023-01-10T11:26:23;7.50;99.90
39067;DHT22;24821;51.988;6.020;2023-01-10T11:29:05;7.50;99.90
39067;DHT22;24821;51.988;6.020;2023-01-10T11:31:33;7.60;99.90
39067;DHT22;24821;51.988;6.020;2023-01-10T11:34:05;7.50;99.90
39067;DHT22;24821;51.988;6.020;2023-01-10T11:39:25;7.60;99.90
39067;DHT22;24821;51.988;6.020;2023-01-10T11:41:52;7.60;99.90
39067;DHT22;24821;51.988;6.020;2023-01-10T11:44:26;7.60;99.90
39067;DHT22;24821;51.988;6.020;2023-01-10T11:46:58;7.60;99.90
39067;DHT22;24821;51.988;6.020;2023-01-10T11:49:30;7.70;99.90
39067;DHT22;24821;51.988;6.020;2023-01-10T11:52:04;7.70;99.90
39067;DHT22;24821;51.988;6.020;2023-01-10T11:54:31;7.70;99.90
39067;DHT22;24821;51.988;6.020;2023-01-10T11:59:32;7.80;99.90
39067;DHT22;24821;51.988;6.020;2023-01-10T12:02:03;7.80;99.90
39067;DHT22;24821;51.988;6.020;2023-01-10T12:04:40;7.90;99.90
39067;DHT22;24821;51.988;6.020;2023-01-10T12:07:11;7.90;99.90
39067;DHT22;24821;51.988;6.020;2023-01-10T12:09:46;7.90;99.90
39067;DHT22;24821;51.988;6.020;2023-01-10T12:12:51;8.00;99.90
39067;DHT22;24821;51.988;6.020;2023-01-10T12:15:29;8.00;99.90
39067;DHT22;24821;51.988;6.020;2023-01-10T12:18:01;8.00;99.90
39067;DHT22;24821;51.988;6.020;2023-01-10T12:20:30;8.00;99.90
39067;DHT22;24821;51.988;6.020;2023-01-10T12:22:59;8.00;99.90
39067;DHT22;24821;51.988;6.020;2023-01-10T12:25:33;8.00;99.90
39067;DHT22;24821;51.988;6.020;2023-01-10T12:28:00;8.00;99.90
39067;DHT22;24821;51.988;6.020;2023-01-10T12:30:33;8.00;99.90
39067;DHT22;24821;51.988;6.020;2023-01-10T12:33:02;8.00;99.90
39067;DHT22;24821;51.988;6.020;2023-01-10T12:38:37;8.00;99.90
39067;DHT22;24821;51.988;6.020;2023-01-10T12:41:28;8.00;99.90
39067;DHT22;24821;51.988;6.020;2023-01-10T12:44:19;7.90;99.90
39067;DHT22;24821;51.988;6.020;2023-01-10T12:46:50;7.90;99.90
39067;DHT22;24821;51.988;6.020;2023-01-10T12:49:27;7.90;99.90
39067;DHT22;24821;51.988;6.020;2023-01-10T12:51:54;7.90;99.90
39067;DHT22;24821;51.988;6.020;2023-01-10T12:54:25;7.90;99.90
39067;DHT22;24821;51.988;6.020;2023-01-10T12:56:53;7.90;99.90
39067;DHT22;24821;51.988;6.020;2023-01-10T12:59:24;7.90;99.90
39067;DHT22;24821;51.988;6.020;2023-01-10T13:01:54;7.90;99.90
39067;DHT22;24821;51.988;6.020;2023-01-10T13:04:22;7.90;99.90
39067;DHT22;24821;51.988;6.020;2023-01-10T13:06:49;7.90;99.90
39067;DHT22;24821;51.988;6.020;2023-01-10T13:09:18;7.90;99.90
39067;DHT22;24821;51.988;6.020;2023-01-10T13:12:13;8.00;99.90
39067;DHT22;24821;51.988;6.020;2023-01-10T13:17:55;7.90;99.90
39067;DHT22;24821;51.988;6.020;2023-01-10T13:22:57;7.90;99.90
39067;DHT22;24821;51.988;6.020;2023-01-10T13:25:36;8.00;99.90
39067;DHT22;24821;51.988;6.020;2023-01-10T13:28:18;8.00;99.90
39067;DHT22;24821;51.988;6.020;2023-01-10T13:30:51;8.00;99.90
39067;DHT22;24821;51.988;6.020;2023-01-10T13:35:49;8.00;99.90
39067;DHT22;24821;51.988;6.020;2023-01-10T13:38:29;8.00;99.90
39067;DHT22;24821;51.988;6.020;2023-01-10T13:41:07;8.00;99.90
39067;DHT22;24821;51.988;6.020;2023-01-10T13:44:10;8.00;99.90
39067;DHT22;24821;51.988;6.020;2023-01-10T13:46:42;8.00;99.90
39067;DHT22;24821;51.988;6.020;2023-01-10T13:51:38;8.00;99.90
39067;DHT22;24821;51.988;6.020;2023-01-10T13:56:43;8.00;99.90
39067;DHT22;24821;51.988;6.020;2023-01-10T14:05:00;8.10;99.90
39067;DHT22;24821;51.988;6.020;2023-01-10T14:07:30;8.10;99.90
39067;DHT22;24821;51.988;6.020;2023-01-10T14:10:00;8.10;99.90
39067;DHT22;24821;51.988;6.020;2023-01-10T14:12:44;8.10;99.90
39067;DHT22;24821;51.988;6.020;2023-01-10T14:15:26;8.10;99.90
39067;DHT22;24821;51.988;6.020;2023-01-10T14:17:57;8.00;99.90
39067;DHT22;24821;51.988;6.020;2023-01-10T14:20:24;8.00;99.90
39067;DHT22;24821;51.988;6.020;2023-01-10T14:23:15;8.00;99.90
39067;DHT22;24821;51.988;6.020;2023-01-10T14:25:44;8.00;99.90
39067;DHT22;24821;51.988;6.020;2023-01-10T14:28:21;8.10;99.90
39067;DHT22;24821;51.988;6.020;2023-01-10T14:31:02;8.10;99.90
39067;DHT22;24821;51.988;6.020;2023-01-10T14:33:29;8.00;99.90
39067;DHT22;24821;51.988;6.020;2023-01-10T14:35:59;8.10;99.90
39067;DHT22;24821;51.988;6.020;2023-01-10T14:38:28;8.10;99.90
39067;DHT22;24821;51.988;6.020;2023-01-10T14:40:59;8.10;99.90
39067;DHT22;24821;51.988;6.020;2023-01-10T14:43:40;8.10;99.90
39067;DHT22;24821;51.988;6.020;2023-01-10T14:46:21;8.10;99.90
39067;DHT22;24821;51.988;6.020;2023-01-10T14:48:50;8.10;99.90
39067;DHT22;24821;51.988;6.020;2023-01-10T14:51:23;8.10;99.90
39067;DHT22;24821;51.988;6.020;2023-01-10T14:54:10;8.20;99.90
39067;DHT22;24821;51.988;6.020;2023-01-10T14:56:41;8.20;99.90
39067;DHT22;24821;51.988;6.020;2023-01-10T14:59:17;8.20;99.90
39067;DHT22;24821;51.988;6.020;2023-01-10T15:01:57;8.20;99.90
39067;DHT22;24821;51.988;6.020;2023-01-10T15:04:27;8.20;99.90
39067;DHT22;24821;51.988;6.020;2023-01-10T15:06:58;8.20;99.90
39067;DHT22;24821;51.988;6.020;2023-01-10T15:09:29;8.10;99.90
39067;DHT22;24821;51.988;6.020;2023-01-10T15:11:58;8.10;99.90
39067;DHT22;24821;51.988;6.020;2023-01-10T15:14:25;8.10;99.90
39067;DHT22;24821;51.988;6.020;2023-01-10T15:17:01;8.00;99.90
39067;DHT22;24821;51.988;6.020;2023-01-10T15:19:31;8.00;99.90
39067;DHT22;24821;51.988;6.020;2023-01-10T15:21:58;8.00;99.90
39067;DHT22;24821;51.988;6.020;2023-01-10T15:24:34;7.90;99.90
39067;DHT22;24821;51.988;6.020;2023-01-10T15:27:20;7.90;99.90
39067;DHT22;24821;51.988;6.020;2023-01-10T15:29:45;7.90;99.90
39067;DHT22;24821;51.988;6.020;2023-01-10T15:32:23;7.80;99.90
39067;DHT22;24821;51.988;6.020;2023-01-10T15:34:52;7.80;99.90
39067;DHT22;24821;51.988;6.020;2023-01-10T15:37:23;7.70;99.90
39067;DHT22;24821;51.988;6.020;2023-01-10T15:39:58;7.70;99.90
39067;DHT22;24821;51.988;6.020;2023-01-10T15:42:24;7.60;99.90
39067;DHT22;24821;51.988;6.020;2023-01-10T15:44:51;7.60;99.90
39067;DHT22;24821;51.988;6.020;2023-01-10T15:47:36;7.60;99.90
39067;DHT22;24821;51.988;6.020;2023-01-10T15:50:20;7.60;99.90
39067;DHT22;24821;51.988;6.020;2023-01-10T15:52:53;7.60;99.90
39067;DHT22;24821;51.988;6.020;2023-01-10T15:58:28;7.50;99.90
39067;DHT22;24821;51.988;6.020;2023-01-10T16:00:56;7.50;99.90
39067;DHT22;24821;51.988;6.020;2023-01-10T16:05:56;7.40;99.90
39067;DHT22;24821;51.988;6.020;2023-01-10T16:08:25;7.40;99.90
39067;DHT22;24821;51.988;6.020;2023-01-10T16:10:57;7.40;99.90
39067;DHT22;24821;51.988;6.020;2023-01-10T16:13:24;7.40;99.90
39067;DHT22;24821;51.988;6.020;2023-01-10T16:15:54;7.40;99.90
39067;DHT22;24821;51.988;6.020;2023-01-10T16:18:20;7.40;99.90
39067;DHT22;24821;51.988;6.020;2023-01-10T16:20:46;7.30;99.90
39067;DHT22;24821;51.988;6.020;2023-01-10T16:23:33;7.30;99.90
39067;DHT22;24821;51.988;6.020;2023-01-10T16:26:03;7.40;99.90
39067;DHT22;24821;51.988;6.020;2023-01-10T16:28:29;7.30;99.90
39067;DHT22;24821;51.988;6.020;2023-01-10T16:31:03;7.30;99.90
39067;DHT22;24821;51.988;6.020;2023-01-10T16:33:29;7.30;99.90
39067;DHT22;24821;51.988;6.020;2023-01-10T16:35:56;7.30;99.90
39067;DHT22;24821;51.988;6.020;2023-01-10T16:38:23;7.30;99.90
39067;DHT22;24821;51.988;6.020;2023-01-10T16:41:00;7.30;99.90
39067;DHT22;24821;51.988;6.020;2023-01-10T16:43:47;7.30;99.90
39067;DHT22;24821;51.988;6.020;2023-01-10T16:46:13;7.30;99.90
39067;DHT22;24821;51.988;6.020;2023-01-10T16:48:38;7.30;99.90
39067;DHT22;24821;51.988;6.020;2023-01-10T16:51:14;7.20;99.90
39067;DHT22;24821;51.988;6.020;2023-01-10T16:53:40;7.20;99.90
39067;DHT22;24821;51.988;6.020;2023-01-10T16:56:07;7.20;99.90
39067;DHT22;24821;51.988;6.020;2023-01-10T16:58:35;7.20;99.90
39067;DHT22;24821;51.988;6.020;2023-01-10T17:01:01;7.20;99.90
39067;DHT22;24821;51.988;6.020;2023-01-10T17:03:28;7.20;99.90
39067;DHT22;24821;51.988;6.020;2023-01-10T17:05:56;7.20;99.90
39067;DHT22;24821;51.988;6.020;2023-01-10T17:08:23;7.20;99.90
39067;DHT22;24821;51.988;6.020;2023-01-10T17:10:58;7.10;99.90
39067;DHT22;24821;51.988;6.020;2023-01-10T17:13:36;7.10;99.90
39067;DHT22;24821;51.988;6.020;2023-01-10T17:16:03;7.20;99.90
39067;DHT22;24821;51.988;6.020;2023-01-10T17:18:29;7.10;99.90
39067;DHT22;24821;51.988;6.020;2023-01-10T17:20:57;7.10;99.90
39067;DHT22;24821;51.988;6.020;2023-01-10T17:23:23;7.10;99.90
39067;DHT22;24821;51.988;6.020;2023-01-10T17:25:49;7.10;99.90
39067;DHT22;24821;51.988;6.020;2023-01-10T17:28:21;7.10;99.90
39067;DHT22;24821;51.988;6.020;2023-01-10T17:30:47;7.10;99.90